sensor_id;sensor_type;location;lat;lon;timestamp;pressure;altitude;pressure_sealevel;temperature;humidity
3254;BME280;1639;42.804;23.342;2023-08-12T00:00:01;72970.22;;;-148.52;97.88
3254;BME280;1639;42.804;23.342;2023-08-12T00:02:33;72976.41;;;-148.52;95.62
3254;BME280;1639;42.804;23.342;2023-08-12T00:04:59;72982.63;;;-148.52;93.91
3254;BME280;1639;42.804;23.342;2023-08-12T00:07:24;72984.69;;;-148.52;94.72
3254;BME280;1639;42.804;23.342;2023-08-12T00:09:50;72984.69;;;-148.52;94.44
3254;BME280;1639;42.804;23.342;2023-08-12T00:12:15;72988.81;;;-148.52;95.46
3254;BME280;1639;42.804;23.342;2023-08-12T00:14:40;72982.63;;;-148.52;96.71
3254;BME280;1639;42.804;23.342;2023-08-12T00:17:06;72972.28;;;-148.52;95.64
3254;BME280;1639;42.804;23.342;2023-08-12T00:19:31;72980.56;;;-148.52;95.53
3254;BME280;1639;42.804;23.342;2023-08-12T00:21:57;72964.00;;;-148.52;95.03
3254;BME280;1639;42.804;23.342;2023-08-12T00:24:22;72951.59;;;-148.52;94.42
3254;BME280;1639;42.804;23.342;2023-08-12T00:26:47;72951.59;;;-148.52;93.04
3254;BME280;1639;42.804;23.342;2023-08-12T00:29:13;72966.06;;;-148.52;94.84
3254;BME280;1639;42.804;23.342;2023-08-12T00:31:38;72955.75;;;-148.52;94.46
3254;BME280;1639;42.804;23.342;2023-08-12T00:34:03;72951.59;;;-148.52;94.05
3254;BME280;1639;42.804;23.342;2023-08-12T00:36:29;72939.19;;;-148.52;93.70
3254;BME280;1639;42.804;23.342;2023-08-12T00:38:54;72937.13;;;-148.52;92.80
3254;BME280;1639;42.804;23.342;2023-08-12T00:41:20;72933.00;;;-148.52;91.28
3254;BME280;1639;42.804;23.342;2023-08-12T00:43:45;72926.78;;;-148.52;90.33
3254;BME280;1639;42.804;23.342;2023-08-12T00:46:11;72926.78;;;-148.52;90.15
3254;BME280;1639;42.804;23.342;2023-08-12T00:48:37;72935.06;;;-148.52;90.34
3254;BME280;1639;42.804;23.342;2023-08-12T00:51:02;72947.47;;;-148.52;91.07
3254;BME280;1639;42.804;23.342;2023-08-12T00:53:28;72939.19;;;-148.52;91.03
3254;BME280;1639;42.804;23.342;2023-08-12T00:55:54;72930.91;;;-148.52;90.57
3254;BME280;1639;42.804;23.342;2023-08-12T00:58:19;72943.31;;;-148.52;90.17
3254;BME280;1639;42.804;23.342;2023-08-12T01:00:45;72945.41;;;-148.52;89.81
3254;BME280;1639;42.804;23.342;2023-08-12T01:03:10;72943.31;;;-148.52;88.82
3254;BME280;1639;42.804;23.342;2023-08-12T01:05:36;72945.41;;;-148.52;87.48
3254;BME280;1639;42.804;23.342;2023-08-12T01:08:02;72951.59;;;-148.52;86.77
3254;BME280;1639;42.804;23.342;2023-08-12T01:10:34;72953.66;;;-148.52;86.61
3254;BME280;1639;42.804;23.342;2023-08-12T01:13:28;72964.00;;;-148.52;89.24
3254;BME280;1639;42.804;23.342;2023-08-12T01:15:58;72984.69;;;-148.52;87.92
3254;BME280;1639;42.804;23.342;2023-08-12T01:18:26;72978.50;;;-148.52;88.10
3254;BME280;1639;42.804;23.342;2023-08-12T01:20:52;72978.50;;;-148.52;88.58
3254;BME280;1639;42.804;23.342;2023-08-12T01:23:18;72976.41;;;-148.52;89.10
3254;BME280;1639;42.804;23.342;2023-08-12T01:25:45;72980.56;;;-148.52;90.92
3254;BME280;1639;42.804;23.342;2023-08-12T01:28:10;72980.56;;;-148.52;92.16
3254;BME280;1639;42.804;23.342;2023-08-12T01:30:46;72984.69;;;-148.52;88.82
3254;BME280;1639;42.804;23.342;2023-08-12T01:33:19;72995.03;;;-148.52;88.65
3254;BME280;1639;42.804;23.342;2023-08-12T01:35:55;72997.09;;;-148.52;88.75
3254;BME280;1639;42.804;23.342;2023-08-12T01:38:26;73013.66;;;-148.52;88.90
3254;BME280;1639;42.804;23.342;2023-08-12T01:40:53;73019.84;;;-148.52;88.63
3254;BME280;1639;42.804;23.342;2023-08-12T01:43:19;73034.34;;;-148.52;89.61
3254;BME280;1639;42.804;23.342;2023-08-12T01:45:44;73038.47;;;-148.52;90.71
3254;BME280;1639;42.804;23.342;2023-08-12T01:48:10;73032.25;;;-148.52;90.98
3254;BME280;1639;42.804;23.342;2023-08-12T01:50:36;73036.41;;;-148.52;90.39
3254;BME280;1639;42.804;23.342;2023-08-12T01:53:01;73065.34;;;-148.52;89.84
3254;BME280;1639;42.804;23.342;2023-08-12T01:55:26;73067.41;;;-148.52;92.47
3254;BME280;1639;42.804;23.342;2023-08-12T01:57:52;73067.41;;;-148.52;92.24
3254;BME280;1639;42.804;23.342;2023-08-12T02:00:18;73063.28;;;-148.52;93.04
3254;BME280;1639;42.804;23.342;2023-08-12T02:02:43;73073.63;;;-148.52;92.77
3254;BME280;1639;42.804;23.342;2023-08-12T02:05:13;73073.63;;;-148.52;93.59
3254;BME280;1639;42.804;23.342;2023-08-12T02:07:38;73077.75;;;-148.52;93.36
3254;BME280;1639;42.804;23.342;2023-08-12T02:10:04;73083.97;;;-148.52;93.04
3254;BME280;1639;42.804;23.342;2023-08-12T02:12:31;73100.50;;;-148.52;97.15
3254;BME280;1639;42.804;23.342;2023-08-12T02:14:56;73094.31;;;-148.52;97.57
3254;BME280;1639;42.804;23.342;2023-08-12T02:17:22;73098.44;;;-148.52;96.43
3254;BME280;1639;42.804;23.342;2023-08-12T02:19:47;73098.44;;;-148.52;95.91
3254;BME280;1639;42.804;23.342;2023-08-12T02:22:12;73121.19;;;-148.52;97.81
3254;BME280;1639;42.804;23.342;2023-08-12T02:24:38;73125.34;;;-148.52;99.10
3254;BME280;1639;42.804;23.342;2023-08-12T02:27:03;73125.34;;;-148.52;100.00
3254;BME280;1639;42.804;23.342;2023-08-12T02:29:29;73123.25;;;-148.52;100.00
3254;BME280;1639;42.804;23.342;2023-08-12T02:31:54;73119.13;;;-148.52;100.00
3254;BME280;1639;42.804;23.342;2023-08-12T02:34:19;73131.53;;;-148.52;100.00
3254;BME280;1639;42.804;23.342;2023-08-12T02:36:45;73127.41;;;-148.52;100.00
3254;BME280;1639;42.804;23.342;2023-08-12T02:39:11;73127.41;;;-148.52;100.00
3254;BME280;1639;42.804;23.342;2023-08-12T02:41:37;73133.59;;;-148.52;100.00
3254;BME280;1639;42.804;23.342;2023-08-12T02:44:02;73129.47;;;-148.52;100.00
3254;BME280;1639;42.804;23.342;2023-08-12T02:46:28;73127.41;;;-148.52;100.00
3254;BME280;1639;42.804;23.342;2023-08-12T02:48:53;73133.59;;;-148.52;100.00
3254;BME280;1639;42.804;23.342;2023-08-12T02:51:18;73137.75;;;-148.52;100.00
3254;BME280;1639;42.804;23.342;2023-08-12T02:53:44;73137.75;;;-148.52;100.00
3254;BME280;1639;42.804;23.342;2023-08-12T02:56:09;73129.47;;;-148.52;100.00
3254;BME280;1639;42.804;23.342;2023-08-12T02:58:34;73131.53;;;-148.52;100.00
3254;BME280;1639;42.804;23.342;2023-08-12T03:01:00;73141.88;;;-148.52;100.00
3254;BME280;1639;42.804;23.342;2023-08-12T03:03:25;73141.88;;;-148.52;100.00
3254;BME280;1639;42.804;23.342;2023-08-12T03:05:51;73143.94;;;-148.52;100.00
3254;BME280;1639;42.804;23.342;2023-08-12T03:08:16;73152.22;;;-148.52;100.00
3254;BME280;1639;42.804;23.342;2023-08-12T03:10:41;73148.09;;;-148.52;100.00
3254;BME280;1639;42.804;23.342;2023-08-12T03:13:07;73166.69;;;-148.52;100.00
3254;BME280;1639;42.804;23.342;2023-08-12T03:15:33;73164.63;;;-148.52;100.00
3254;BME280;1639;42.804;23.342;2023-08-12T03:17:58;73177.03;;;-148.52;100.00
3254;BME280;1639;42.804;23.342;2023-08-12T03:20:24;73187.38;;;-148.52;100.00
3254;BME280;1639;42.804;23.342;2023-08-12T03:22:49;73203.94;;;-148.52;100.00
3254;BME280;1639;42.804;23.342;2023-08-12T03:25:14;73208.06;;;-148.52;100.00
3254;BME280;1639;42.804;23.342;2023-08-12T03:27:41;73199.78;;;-148.52;100.00
3254;BME280;1639;42.804;23.342;2023-08-12T03:30:07;73214.28;;;-148.52;100.00
3254;BME280;1639;42.804;23.342;2023-08-12T03:32:32;73232.88;;;-148.52;100.00
3254;BME280;1639;42.804;23.342;2023-08-12T03:34:58;73253.56;;;-148.52;100.00
3254;BME280;1639;42.804;23.342;2023-08-12T03:37:24;73255.63;;;-148.52;100.00
3254;BME280;1639;42.804;23.342;2023-08-12T03:39:50;73249.44;;;-148.52;100.00
3254;BME280;1639;42.804;23.342;2023-08-12T03:42:15;73234.94;;;-148.52;100.00
3254;BME280;1639;42.804;23.342;2023-08-12T03:44:42;73214.28;;;-148.52;100.00
3254;BME280;1639;42.804;23.342;2023-08-12T03:47:07;73199.78;;;-148.52;100.00
3254;BME280;1639;42.804;23.342;2023-08-12T03:49:33;73224.63;;;-148.52;100.00
3254;BME280;1639;42.804;23.342;2023-08-12T03:51:58;73224.63;;;-148.52;100.00
3254;BME280;1639;42.804;23.342;2023-08-12T03:54:23;73216.34;;;-148.52;100.00
3254;BME280;1639;42.804;23.342;2023-08-12T03:56:49;73216.34;;;-148.52;100.00
3254;BME280;1639;42.804;23.342;2023-08-12T03:59:14;73208.06;;;-148.52;100.00
3254;BME280;1639;42.804;23.342;2023-08-12T04:01:40;73208.06;;;-148.52;100.00
3254;BME280;1639;42.804;23.342;2023-08-12T04:04:05;73210.13;;;-148.52;100.00
3254;BME280;1639;42.804;23.342;2023-08-12T04:06:31;73201.84;;;-148.52;100.00
3254;BME280;1639;42.804;23.342;2023-08-12T04:08:56;73187.38;;;-148.52;100.00
3254;BME280;1639;42.804;23.342;2023-08-12T04:11:22;73187.38;;;-148.52;100.00
3254;BME280;1639;42.804;23.342;2023-08-12T04:13:47;73174.97;;;-148.52;100.00
3254;BME280;1639;42.804;23.342;2023-08-12T04:16:12;73156.34;;;-148.52;100.00
3254;BME280;1639;42.804;23.342;2023-08-12T04:18:38;73150.16;;;-148.52;100.00
3254;BME280;1639;42.804;23.342;2023-08-12T04:21:03;73148.09;;;-148.52;100.00
3254;BME280;1639;42.804;23.342;2023-08-12T04:23:29;73141.88;;;-148.52;100.00
3254;BME280;1639;42.804;23.342;2023-08-12T04:25:54;73129.47;;;-148.52;100.00
3254;BME280;1639;42.804;23.342;2023-08-12T04:28:20;73146.00;;;-148.52;100.00
3254;BME280;1639;42.804;23.342;2023-08-12T04:30:48;73133.59;;;-148.52;100.00
3254;BME280;1639;42.804;23.342;2023-08-12T04:33:18;73143.94;;;-148.52;100.00
3254;BME280;1639;42.804;23.342;2023-08-12T04:35:45;73115.00;;;-148.52;100.00
3254;BME280;1639;42.804;23.342;2023-08-12T04:38:11;73100.50;;;-148.52;100.00
3254;BME280;1639;42.804;23.342;2023-08-12T04:40:40;73108.78;;;-148.52;100.00
3254;BME280;1639;42.804;23.342;2023-08-12T04:43:05;73096.38;;;-148.52;100.00
3254;BME280;1639;42.804;23.342;2023-08-12T04:45:31;73108.78;;;-148.52;100.00
3254;BME280;1639;42.804;23.342;2023-08-12T04:47:57;73088.09;;;-148.52;100.00
3254;BME280;1639;42.804;23.342;2023-08-12T04:50:22;73112.91;;;-148.52;100.00
3254;BME280;1639;42.804;23.342;2023-08-12T04:52:48;73098.44;;;-148.52;100.00
3254;BME280;1639;42.804;23.342;2023-08-12T04:55:13;73100.50;;;-148.52;100.00
3254;BME280;1639;42.804;23.342;2023-08-12T04:57:39;73092.25;;;-148.52;100.00
3254;BME280;1639;42.804;23.342;2023-08-12T05:00:05;73077.75;;;-148.52;100.00
3254;BME280;1639;42.804;23.342;2023-08-12T05:02:33;73067.41;;;-148.52;100.00
3254;BME280;1639;42.804;23.342;2023-08-12T05:04:59;73050.88;;;-148.52;100.00
3254;BME280;1639;42.804;23.342;2023-08-12T05:07:25;73042.59;;;-148.52;100.00
3254;BME280;1639;42.804;23.342;2023-08-12T05:09:50;73024.00;;;-148.52;100.00
3254;BME280;1639;42.804;23.342;2023-08-12T05:12:15;73028.13;;;-148.52;100.00
3254;BME280;1639;42.804;23.342;2023-08-12T05:14:41;73021.91;;;-148.52;100.00
3254;BME280;1639;42.804;23.342;2023-08-12T05:17:06;73007.44;;;-148.52;100.00
3254;BME280;1639;42.804;23.342;2023-08-12T05:19:32;72997.09;;;-148.52;100.00
3254;BME280;1639;42.804;23.342;2023-08-12T05:21:58;73005.38;;;-148.52;100.00
3254;BME280;1639;42.804;23.342;2023-08-12T05:24:23;72999.16;;;-148.52;100.00
3254;BME280;1639;42.804;23.342;2023-08-12T05:26:49;72974.34;;;-148.52;100.00
3254;BME280;1639;42.804;23.342;2023-08-12T05:29:14;72986.75;;;-148.52;100.00
3254;BME280;1639;42.804;23.342;2023-08-12T05:31:39;72959.88;;;-148.52;100.00
3254;BME280;1639;42.804;23.342;2023-08-12T05:34:05;72943.31;;;-148.52;100.00
3254;BME280;1639;42.804;23.342;2023-08-12T05:36:30;72935.06;;;-148.52;100.00
3254;BME280;1639;42.804;23.342;2023-08-12T05:38:56;72941.25;;;-148.52;99.88
3254;BME280;1639;42.804;23.342;2023-08-12T05:41:21;72924.72;;;-148.52;98.97
3254;BME280;1639;42.804;23.342;2023-08-12T05:43:48;72897.81;;;-148.52;94.16
3254;BME280;1639;42.804;23.342;2023-08-12T05:46:14;72885.41;;;-148.52;89.02
3254;BME280;1639;42.804;23.342;2023-08-12T05:48:39;72883.34;;;-148.52;88.88
3254;BME280;1639;42.804;23.342;2023-08-12T05:51:05;72891.63;;;-148.52;87.95
3254;BME280;1639;42.804;23.342;2023-08-12T05:53:30;72873.00;;;-148.52;87.10
3254;BME280;1639;42.804;23.342;2023-08-12T05:55:56;72850.25;;;-148.52;87.76
3254;BME280;1639;42.804;23.342;2023-08-12T05:58:21;72862.66;;;-148.52;87.00
3254;BME280;1639;42.804;23.342;2023-08-12T06:00:46;72862.66;;;-148.52;88.46
3254;BME280;1639;42.804;23.342;2023-08-12T06:03:12;72827.50;;;-148.52;90.17
3254;BME280;1639;42.804;23.342;2023-08-12T06:05:39;72810.97;;;-148.52;89.02
3254;BME280;1639;42.804;23.342;2023-08-12T06:08:04;72800.63;;;-148.52;87.52
3254;BME280;1639;42.804;23.342;2023-08-12T06:10:30;72773.75;;;-148.52;86.96
3254;BME280;1639;42.804;23.342;2023-08-12T06:12:55;72759.25;;;-148.52;86.09
3254;BME280;1639;42.804;23.342;2023-08-12T06:15:20;72748.91;;;-148.52;84.33
3254;BME280;1639;42.804;23.342;2023-08-12T06:17:46;72717.91;;;-148.52;84.41
3254;BME280;1639;42.804;23.342;2023-08-12T06:20:12;72707.56;;;-148.52;80.97
3254;BME280;1639;42.804;23.342;2023-08-12T06:22:37;72674.47;;;-148.52;78.36
3254;BME280;1639;42.804;23.342;2023-08-12T06:25:03;72637.25;;;-148.52;76.84
3254;BME280;1639;42.804;23.342;2023-08-12T06:27:28;72608.28;;;-148.52;75.47
3254;BME280;1639;42.804;23.342;2023-08-12T06:29:53;72583.47;;;-148.52;73.72
3254;BME280;1639;42.804;23.342;2023-08-12T06:32:19;72560.72;;;-148.52;74.52
3254;BME280;1639;42.804;23.342;2023-08-12T06:34:44;72537.97;;;-148.52;73.33
3254;BME280;1639;42.804;23.342;2023-08-12T06:37:10;72509.03;;;-148.52;70.65
3254;BME280;1639;42.804;23.342;2023-08-12T06:39:35;72492.50;;;-148.52;69.47
3254;BME280;1639;42.804;23.342;2023-08-12T06:42:00;72463.53;;;-148.52;68.52
3254;BME280;1639;42.804;23.342;2023-08-12T06:44:26;72449.06;;;-148.52;68.57
3254;BME280;1639;42.804;23.342;2023-08-12T06:46:51;72428.38;;;-148.52;67.44
3254;BME280;1639;42.804;23.342;2023-08-12T06:49:18;72401.50;;;-148.52;65.99
3254;BME280;1639;42.804;23.342;2023-08-12T06:51:43;72382.88;;;-148.52;65.14
3254;BME280;1639;42.804;23.342;2023-08-12T06:54:08;72358.06;;;-148.52;64.12
3254;BME280;1639;42.804;23.342;2023-08-12T06:56:34;72343.59;;;-148.52;63.92
3254;BME280;1639;42.804;23.342;2023-08-12T06:58:59;72329.13;;;-148.52;64.24
3254;BME280;1639;42.804;23.342;2023-08-12T07:01:24;72316.72;;;-148.52;63.80
3254;BME280;1639;42.804;23.342;2023-08-12T07:03:50;72302.25;;;-148.52;64.40
3254;BME280;1639;42.804;23.342;2023-08-12T07:06:15;72285.69;;;-148.52;62.13
3254;BME280;1639;42.804;23.342;2023-08-12T07:08:41;72273.28;;;-148.52;62.41
3254;BME280;1639;42.804;23.342;2023-08-12T07:11:06;72279.50;;;-148.52;60.77
3254;BME280;1639;42.804;23.342;2023-08-12T07:13:31;72273.28;;;-148.52;60.18
3254;BME280;1639;42.804;23.342;2023-08-12T07:15:58;72238.13;;;-148.52;59.74
3254;BME280;1639;42.804;23.342;2023-08-12T07:18:24;72205.06;;;-148.52;59.65
3254;BME280;1639;42.804;23.342;2023-08-12T07:20:50;72188.50;;;-148.52;58.94
3254;BME280;1639;42.804;23.342;2023-08-12T07:23:15;72180.25;;;-148.52;56.05
3254;BME280;1639;42.804;23.342;2023-08-12T07:25:40;72155.44;;;-148.52;55.45
3254;BME280;1639;42.804;23.342;2023-08-12T07:28:06;72105.81;;;-148.52;55.21
3254;BME280;1639;42.804;23.342;2023-08-12T07:30:34;72064.44;;;-148.52;53.93
3254;BME280;1639;42.804;23.342;2023-08-12T07:33:00;72029.28;;;-148.52;53.68
3254;BME280;1639;42.804;23.342;2023-08-12T07:35:25;71996.22;;;-148.52;53.81
3254;BME280;1639;42.804;23.342;2023-08-12T07:37:50;71959.00;;;-148.52;50.75
3254;BME280;1639;42.804;23.342;2023-08-12T07:40:16;71938.31;;;-148.52;49.75
3254;BME280;1639;42.804;23.342;2023-08-12T07:42:41;71923.84;;;-148.52;50.93
3254;BME280;1639;42.804;23.342;2023-08-12T07:45:07;71909.38;;;-148.52;49.87
3254;BME280;1639;42.804;23.342;2023-08-12T07:47:34;71865.94;;;-148.52;48.58
3254;BME280;1639;42.804;23.342;2023-08-12T07:49:59;71832.88;;;-148.52;47.31
3254;BME280;1639;42.804;23.342;2023-08-12T07:52:24;71789.44;;;-148.52;47.30
3254;BME280;1639;42.804;23.342;2023-08-12T07:54:50;71768.78;;;-148.52;46.07
3254;BME280;1639;42.804;23.342;2023-08-12T07:57:16;71739.81;;;-148.52;46.08
3254;BME280;1639;42.804;23.342;2023-08-12T07:59:41;71702.59;;;-148.52;46.19
3254;BME280;1639;42.804;23.342;2023-08-12T08:02:06;71692.28;;;-148.52;45.95
3254;BME280;1639;42.804;23.342;2023-08-12T08:04:33;71675.72;;;-148.52;44.57
3254;BME280;1639;42.804;23.342;2023-08-12T08:06:58;71659.19;;;-148.52;43.48
3254;BME280;1639;42.804;23.342;2023-08-12T08:09:24;71657.13;;;-148.52;44.04
3254;BME280;1639;42.804;23.342;2023-08-12T08:11:49;71648.84;;;-148.52;43.10
3254;BME280;1639;42.804;23.342;2023-08-12T08:14:15;71653.00;;;-148.52;44.27
3254;BME280;1639;42.804;23.342;2023-08-12T08:16:40;71624.03;;;-148.52;42.33
3254;BME280;1639;42.804;23.342;2023-08-12T08:19:07;71588.91;;;-148.52;42.63
3254;BME280;1639;42.804;23.342;2023-08-12T08:21:35;71566.16;;;-148.52;41.64
3254;BME280;1639;42.804;23.342;2023-08-12T08:24:00;71549.63;;;-148.52;41.03
3254;BME280;1639;42.804;23.342;2023-08-12T08:26:26;71549.63;;;-148.52;41.62
3254;BME280;1639;42.804;23.342;2023-08-12T08:28:52;71520.66;;;-148.52;40.20
3254;BME280;1639;42.804;23.342;2023-08-12T08:31:17;71500.00;;;-148.52;40.15
3254;BME280;1639;42.804;23.342;2023-08-12T08:33:43;71487.59;;;-148.52;40.10
3254;BME280;1639;42.804;23.342;2023-08-12T08:36:08;71464.84;;;-148.52;39.06
3254;BME280;1639;42.804;23.342;2023-08-12T08:38:34;71435.91;;;-148.52;37.95
3254;BME280;1639;42.804;23.342;2023-08-12T08:41:00;71421.44;;;-148.52;38.18
3254;BME280;1639;42.804;23.342;2023-08-12T08:43:26;71429.69;;;-148.52;37.32
3254;BME280;1639;42.804;23.342;2023-08-12T08:45:53;71483.44;;;-148.52;37.56
3254;BME280;1639;42.804;23.342;2023-08-12T08:48:20;71466.91;;;-148.52;37.62
3254;BME280;1639;42.804;23.342;2023-08-12T08:50:46;71431.78;;;-148.52;38.21
3254;BME280;1639;42.804;23.342;2023-08-12T08:53:14;71402.81;;;-148.52;38.81
3254;BME280;1639;42.804;23.342;2023-08-12T08:55:41;71392.50;;;-148.52;36.35
3254;BME280;1639;42.804;23.342;2023-08-12T08:58:06;71386.28;;;-148.52;36.31
3254;BME280;1639;42.804;23.342;2023-08-12T09:00:32;71421.44;;;-148.52;36.66
3254;BME280;1639;42.804;23.342;2023-08-12T09:02:58;71404.91;;;-148.52;37.08
3254;BME280;1639;42.804;23.342;2023-08-12T09:05:25;71409.03;;;-148.52;36.43
3254;BME280;1639;42.804;23.342;2023-08-12T09:07:51;71398.69;;;-148.52;37.99
3254;BME280;1639;42.804;23.342;2023-08-12T09:10:17;71355.28;;;-148.52;39.23
3254;BME280;1639;42.804;23.342;2023-08-12T09:12:45;71316.00;;;-148.52;36.72
3254;BME280;1639;42.804;23.342;2023-08-12T09:15:12;71363.53;;;-148.52;36.11
3254;BME280;1639;42.804;23.342;2023-08-12T09:17:38;71409.03;;;-148.52;37.56
3254;BME280;1639;42.804;23.342;2023-08-12T09:20:04;71367.69;;;-148.52;38.11
3254;BME280;1639;42.804;23.342;2023-08-12T09:22:36;71344.94;;;-148.52;36.09
3254;BME280;1639;42.804;23.342;2023-08-12T09:25:02;71332.53;;;-148.52;36.39
3254;BME280;1639;42.804;23.342;2023-08-12T09:27:30;71280.84;;;-148.52;36.13
3254;BME280;1639;42.804;23.342;2023-08-12T09:29:56;71239.50;;;-148.52;35.25
3254;BME280;1639;42.804;23.342;2023-08-12T09:32:23;71222.97;;;-148.52;35.33
3254;BME280;1639;42.804;23.342;2023-08-12T09:34:51;71204.38;;;-148.52;33.82
3254;BME280;1639;42.804;23.342;2023-08-12T09:37:18;71272.59;;;-148.52;34.56
3254;BME280;1639;42.804;23.342;2023-08-12T09:39:44;71270.50;;;-148.52;34.02
3254;BME280;1639;42.804;23.342;2023-08-12T09:42:11;71272.59;;;-148.52;35.88
3254;BME280;1639;42.804;23.342;2023-08-12T09:44:37;71247.78;;;-148.52;34.10
3254;BME280;1639;42.804;23.342;2023-08-12T09:47:03;71206.44;;;-148.52;35.08
3254;BME280;1639;42.804;23.342;2023-08-12T09:49:30;71235.38;;;-148.52;32.95
3254;BME280;1639;42.804;23.342;2023-08-12T09:51:55;71225.03;;;-148.52;34.36
3254;BME280;1639;42.804;23.342;2023-08-12T09:54:21;71189.88;;;-148.52;35.26
3254;BME280;1639;42.804;23.342;2023-08-12T09:56:48;71158.88;;;-148.52;34.48
3254;BME280;1639;42.804;23.342;2023-08-12T09:59:22;71121.66;;;-148.52;34.84
3254;BME280;1639;42.804;23.342;2023-08-12T10:01:48;71111.34;;;-148.52;33.72
3254;BME280;1639;42.804;23.342;2023-08-12T10:04:17;71076.19;;;-148.52;34.01
3254;BME280;1639;42.804;23.342;2023-08-12T10:06:44;71101.00;;;-148.52;33.39
3254;BME280;1639;42.804;23.342;2023-08-12T10:09:10;71061.72;;;-148.52;32.62
3254;BME280;1639;42.804;23.342;2023-08-12T10:11:36;71072.06;;;-148.52;33.36
3254;BME280;1639;42.804;23.342;2023-08-12T10:14:03;71036.91;;;-148.52;32.83
3254;BME280;1639;42.804;23.342;2023-08-12T10:16:29;71020.38;;;-148.52;32.67
3254;BME280;1639;42.804;23.342;2023-08-12T10:18:56;70995.56;;;-148.52;32.23
3254;BME280;1639;42.804;23.342;2023-08-12T10:21:22;71016.25;;;-148.52;31.65
3254;BME280;1639;42.804;23.342;2023-08-12T10:23:50;70993.50;;;-148.52;32.71
3254;BME280;1639;42.804;23.342;2023-08-12T10:26:17;71092.72;;;-148.52;31.87
3254;BME280;1639;42.804;23.342;2023-08-12T10:28:42;71134.06;;;-148.52;31.73
3254;BME280;1639;42.804;23.342;2023-08-12T10:31:08;71222.97;;;-148.52;31.52
3254;BME280;1639;42.804;23.342;2023-08-12T10:33:37;71289.13;;;-148.52;31.76
3254;BME280;1639;42.804;23.342;2023-08-12T10:36:04;71204.38;;;-148.52;31.03
3254;BME280;1639;42.804;23.342;2023-08-12T10:38:31;71152.69;;;-148.52;32.32
3254;BME280;1639;42.804;23.342;2023-08-12T10:43:59;71210.56;;;-148.52;31.48
3254;BME280;1639;42.804;23.342;2023-08-12T10:46:31;71142.34;;;-148.52;32.13
3254;BME280;1639;42.804;23.342;2023-08-12T10:49:18;71206.44;;;-148.52;31.70
3254;BME280;1639;42.804;23.342;2023-08-12T10:51:51;71185.75;;;-148.52;32.06
3254;BME280;1639;42.804;23.342;2023-08-12T10:54:27;71194.03;;;-148.52;31.43
3254;BME280;1639;42.804;23.342;2023-08-12T11:04:44;71216.75;;;-148.52;33.86
3254;BME280;1639;42.804;23.342;2023-08-12T11:07:21;71206.44;;;-148.52;33.33
3254;BME280;1639;42.804;23.342;2023-08-12T11:09:51;71208.50;;;-148.52;33.11
3254;BME280;1639;42.804;23.342;2023-08-12T11:12:33;71289.13;;;-148.52;33.85
3254;BME280;1639;42.804;23.342;2023-08-12T11:15:00;71270.50;;;-148.52;33.14
3254;BME280;1639;42.804;23.342;2023-08-12T11:17:32;71253.97;;;-148.52;34.00
3254;BME280;1639;42.804;23.342;2023-08-12T11:19:58;71251.91;;;-148.52;34.00
3254;BME280;1639;42.804;23.342;2023-08-12T11:22:24;71280.84;;;-148.52;32.79
3254;BME280;1639;42.804;23.342;2023-08-12T11:24:50;71268.44;;;-148.52;32.62
3254;BME280;1639;42.804;23.342;2023-08-12T11:27:16;71287.06;;;-148.52;32.75
3254;BME280;1639;42.804;23.342;2023-08-12T11:29:43;71260.19;;;-148.52;32.96
3254;BME280;1639;42.804;23.342;2023-08-12T11:32:09;71243.63;;;-148.52;33.09
3254;BME280;1639;42.804;23.342;2023-08-12T11:34:35;71227.09;;;-148.52;32.77
3254;BME280;1639;42.804;23.342;2023-08-12T11:37:02;71218.84;;;-148.52;33.37
3254;BME280;1639;42.804;23.342;2023-08-12T11:39:28;71206.44;;;-148.52;32.74
3254;BME280;1639;42.804;23.342;2023-08-12T11:41:53;71198.16;;;-148.52;32.32
3254;BME280;1639;42.804;23.342;2023-08-12T11:44:22;71183.69;;;-148.52;32.18
3254;BME280;1639;42.804;23.342;2023-08-12T11:46:49;71173.34;;;-148.52;32.29
3254;BME280;1639;42.804;23.342;2023-08-12T11:49:14;71218.84;;;-148.52;31.64
3254;BME280;1639;42.804;23.342;2023-08-12T11:51:41;71235.38;;;-148.52;32.23
3254;BME280;1639;42.804;23.342;2023-08-12T11:54:07;71247.78;;;-148.52;33.57
3254;BME280;1639;42.804;23.342;2023-08-12T11:56:33;71276.72;;;-148.52;32.34
3254;BME280;1639;42.804;23.342;2023-08-12T11:58:59;71218.84;;;-148.52;31.98
3254;BME280;1639;42.804;23.342;2023-08-12T12:01:24;71144.41;;;-148.52;32.08
3254;BME280;1639;42.804;23.342;2023-08-12T12:03:52;71111.34;;;-148.52;33.05
3254;BME280;1639;42.804;23.342;2023-08-12T12:06:36;71158.88;;;-148.52;30.96
3254;BME280;1639;42.804;23.342;2023-08-12T12:09:08;71115.47;;;-148.52;31.98
3254;BME280;1639;42.804;23.342;2023-08-12T12:11:42;71082.41;;;-148.52;31.33
3254;BME280;1639;42.804;23.342;2023-08-12T12:14:08;71065.84;;;-148.52;31.40
3254;BME280;1639;42.804;23.342;2023-08-12T12:21:45;71098.94;;;-148.52;31.88
3254;BME280;1639;42.804;23.342;2023-08-12T12:24:11;71105.13;;;-148.52;31.11
3254;BME280;1639;42.804;23.342;2023-08-12T12:26:37;71105.13;;;-148.52;30.42
3254;BME280;1639;42.804;23.342;2023-08-12T12:29:04;71096.88;;;-148.52;32.34
3254;BME280;1639;42.804;23.342;2023-08-12T12:31:32;71094.78;;;-148.52;30.42
3254;BME280;1639;42.804;23.342;2023-08-12T12:33:58;71125.81;;;-148.52;32.52
3254;BME280;1639;42.804;23.342;2023-08-12T12:36:23;71148.53;;;-148.52;31.19
3254;BME280;1639;42.804;23.342;2023-08-12T12:38:48;71088.59;;;-148.52;31.53
3254;BME280;1639;42.804;23.342;2023-08-12T12:41:14;71045.19;;;-148.52;31.43
3254;BME280;1639;42.804;23.342;2023-08-12T12:43:39;71001.78;;;-148.52;31.31
3254;BME280;1639;42.804;23.342;2023-08-12T12:46:05;70976.97;;;-148.52;30.45
3254;BME280;1639;42.804;23.342;2023-08-12T12:48:31;70954.22;;;-148.52;30.90
3254;BME280;1639;42.804;23.342;2023-08-12T12:50:56;70933.56;;;-148.52;29.94
3254;BME280;1639;42.804;23.342;2023-08-12T12:53:22;70948.03;;;-148.52;29.45
3254;BME280;1639;42.804;23.342;2023-08-12T12:55:47;70968.69;;;-148.52;30.91
3254;BME280;1639;42.804;23.342;2023-08-12T12:58:14;70985.22;;;-148.52;29.84